createdAt,value
2019-03-30T00:01:42.540Z,9.13
2019-03-30T00:04:16.191Z,8.97
2019-03-30T00:06:49.574Z,11.97
2019-03-30T00:09:23.094Z,8.03
2019-03-30T00:11:57.930Z,9.47
2019-03-30T00:14:31.611Z,7.67
2019-03-30T00:17:05.070Z,10.10
2019-03-30T00:19:39.206Z,10.80
2019-03-30T00:22:14.131Z,13.57
2019-03-30T00:24:48.015Z,12.17
2019-03-30T00:27:21.590Z,12.33
2019-03-30T00:29:56.129Z,14.93
2019-03-30T00:32:29.769Z,12.47
2019-03-30T00:35:03.690Z,14.00
2019-03-30T00:37:37.054Z,12.77
2019-03-30T00:40:10.708Z,13.70
2019-03-30T00:42:44.155Z,10.53
2019-03-30T00:45:17.873Z,10.90
2019-03-30T00:47:51.361Z,11.43
2019-03-30T00:50:25.962Z,11.27
2019-03-30T00:52:59.545Z,15.80
2019-03-30T00:55:33.134Z,11.13
2019-03-30T00:58:06.495Z,13.30
2019-03-30T01:00:40.011Z,12.27
2019-03-30T01:03:13.569Z,11.73
2019-03-30T01:05:47.230Z,12.17
2019-03-30T01:08:40.351Z,11.70
2019-03-30T01:11:13.955Z,19.10
2019-03-30T01:13:47.411Z,13.13
2019-03-30T01:16:20.931Z,15.23
2019-03-30T01:18:55.331Z,13.40
2019-03-30T01:21:28.840Z,13.03
2019-03-30T01:24:02.182Z,11.13
2019-03-30T01:26:35.624Z,14.00
2019-03-30T01:29:09.124Z,12.40
2019-03-30T01:31:42.701Z,10.20
2019-03-30T01:34:16.333Z,12.23
2019-03-30T01:36:49.813Z,12.67
2019-03-30T01:39:23.379Z,13.67
2019-03-30T01:41:56.974Z,11.90
2019-03-30T01:44:30.289Z,12.93
2019-03-30T01:47:03.915Z,17.20
2019-03-30T01:49:37.536Z,13.87
2019-03-30T01:52:11.080Z,13.60
2019-03-30T01:54:44.660Z,14.70
2019-03-30T01:57:18.296Z,13.23
2019-03-30T01:59:51.856Z,17.53
2019-03-30T02:02:25.510Z,13.23
2019-03-30T02:04:59.140Z,13.27
2019-03-30T02:07:32.841Z,13.30
2019-03-30T02:10:07.305Z,14.73
2019-03-30T02:12:41.435Z,12.93
2019-03-30T02:15:16.376Z,12.97
2019-03-30T02:17:50.144Z,15.20
2019-03-30T02:20:36.581Z,16.47
2019-03-30T02:23:10.135Z,15.60
2019-03-30T02:25:43.774Z,11.87
2019-03-30T02:28:17.306Z,12.67
2019-03-30T02:30:50.786Z,14.17
2019-03-30T02:33:24.592Z,14.40
2019-03-30T02:35:57.925Z,14.10
2019-03-30T02:38:32.010Z,14.07
2019-03-30T02:41:05.340Z,14.40
2019-03-30T02:43:39.827Z,15.00
2019-03-30T02:46:13.477Z,15.63
2019-03-30T02:48:47.050Z,13.80
2019-03-30T02:51:20.568Z,13.57
2019-03-30T02:53:54.271Z,12.60
2019-03-30T02:56:27.862Z,15.03
2019-03-30T02:59:01.484Z,21.93
2019-03-30T03:01:34.918Z,11.27
2019-03-30T03:04:08.747Z,14.03
2019-03-30T03:06:42.222Z,15.47
2019-03-30T03:09:16.084Z,14.23
2019-03-30T03:11:49.534Z,16.27
2019-03-30T03:14:23.086Z,15.10
2019-03-30T03:16:56.508Z,19.80
2019-03-30T03:19:29.859Z,15.77
2019-03-30T03:22:03.402Z,14.60
2019-03-30T03:24:36.803Z,14.60
2019-03-30T03:27:10.186Z,13.63
2019-03-30T03:29:44.294Z,13.33
2019-03-30T03:32:18.228Z,15.57
2019-03-30T03:34:52.106Z,13.27
2019-03-30T03:37:43.183Z,11.87
2019-03-30T03:40:01.286Z,13.30
2019-03-30T03:42:34.774Z,13.17
2019-03-30T03:45:08.366Z,16.30
2019-03-30T03:47:41.848Z,13.80
2019-03-30T03:50:41.517Z,17.57
2019-03-30T03:53:15.959Z,19.83
2019-03-30T03:55:50.557Z,14.07
2019-03-30T03:58:27.659Z,14.27
2019-03-30T04:01:02.696Z,14.67
2019-03-30T04:03:36.733Z,15.00
2019-03-30T04:06:10.817Z,20.63
2019-03-30T04:08:46.933Z,19.10
2019-03-30T04:11:22.562Z,16.87
2019-03-30T04:13:58.534Z,16.87
2019-03-30T04:16:32.120Z,20.70
2019-03-30T04:19:05.708Z,16.00
2019-03-30T04:21:44.394Z,19.20
2019-03-30T04:24:14.494Z,17.87
2019-03-30T04:26:47.958Z,17.00
2019-03-30T04:29:21.564Z,21.33
2019-03-30T04:31:54.988Z,19.50
2019-03-30T04:34:28.406Z,21.77
2019-03-30T04:37:01.924Z,21.17
2019-03-30T04:39:35.580Z,17.17
2019-03-30T04:42:09.083Z,18.70
2019-03-30T04:44:42.468Z,18.47
2019-03-30T04:47:15.845Z,16.83
2019-03-30T04:49:49.316Z,17.83
2019-03-30T04:52:22.765Z,19.60
2019-03-30T04:54:56.303Z,22.90
2019-03-30T04:57:29.708Z,18.40
2019-03-30T05:00:03.512Z,18.50
2019-03-30T05:02:38.025Z,21.77
2019-03-30T05:05:11.478Z,21.50
2019-03-30T05:07:44.864Z,18.80
2019-03-30T05:10:19.111Z,18.80
2019-03-30T05:12:52.564Z,25.43
2019-03-30T05:15:25.953Z,22.10
2019-03-30T05:17:59.385Z,18.80
2019-03-30T05:20:32.771Z,23.80
2019-03-30T05:23:06.442Z,24.77
2019-03-30T05:25:39.898Z,27.53
2019-03-30T05:28:13.389Z,18.97
2019-03-30T05:30:47.096Z,20.43
2019-03-30T05:33:20.638Z,24.90
2019-03-30T05:35:54.427Z,22.23
2019-03-30T05:38:28.090Z,21.97
2019-03-30T05:41:01.533Z,19.93
2019-03-30T05:43:35.270Z,21.30
2019-03-30T05:46:08.715Z,20.00
2019-03-30T05:48:43.473Z,19.07
2019-03-30T05:51:17.057Z,20.47
2019-03-30T05:53:50.811Z,20.27
2019-03-30T05:56:24.218Z,20.43
2019-03-30T05:58:57.625Z,20.47
2019-03-30T06:01:31.302Z,20.57
2019-03-30T06:04:04.926Z,22.03
2019-03-30T06:06:38.463Z,21.80
2019-03-30T06:09:11.851Z,19.37
2019-03-30T06:11:45.428Z,21.20
2019-03-30T06:14:19.008Z,21.60
2019-03-30T06:16:52.741Z,17.77
2019-03-30T06:19:26.165Z,20.87
2019-03-30T06:21:59.948Z,18.53
2019-03-30T06:24:33.438Z,19.50
2019-03-30T06:27:08.225Z,22.17
2019-03-30T06:29:41.745Z,17.30
2019-03-30T06:32:15.226Z,18.27
2019-03-30T06:34:48.900Z,18.83
2019-03-30T06:37:22.643Z,19.27
2019-03-30T06:39:56.095Z,18.10
2019-03-30T06:42:29.664Z,17.30
2019-03-30T06:45:03.023Z,17.70
2019-03-30T06:47:36.635Z,20.53
2019-03-30T06:50:10.648Z,20.00
2019-03-30T06:52:56.801Z,16.97
2019-03-30T06:55:19.636Z,18.90
2019-03-30T06:57:53.415Z,20.63
2019-03-30T07:00:34.291Z,19.80
2019-03-30T07:03:07.890Z,20.83
2019-03-30T07:05:42.793Z,18.40
2019-03-30T07:08:16.591Z,23.73
2019-03-30T07:10:50.123Z,16.93
2019-03-30T07:13:25.157Z,18.73
2019-03-30T07:16:00.495Z,20.10
2019-03-30T07:18:35.651Z,17.92
2019-03-30T07:21:09.009Z,21.02
2019-03-30T07:23:42.414Z,16.00
2019-03-30T07:26:16.138Z,19.15
2019-03-30T07:28:49.732Z,18.10
2019-03-30T07:31:23.145Z,18.55
2019-03-30T07:33:57.089Z,20.20
2019-03-30T07:36:31.092Z,20.00
2019-03-30T07:39:05.318Z,17.35
2019-03-30T07:41:38.845Z,17.87
2019-03-30T07:44:12.265Z,19.50
2019-03-30T07:46:46.241Z,21.17
2019-03-30T07:49:19.676Z,21.12
2019-03-30T07:51:53.220Z,16.50
2019-03-30T07:54:26.822Z,17.45
2019-03-30T07:57:07.444Z,21.48
2019-03-30T07:59:35.997Z,20.43
2019-03-30T08:02:09.716Z,19.90
2019-03-30T08:04:43.168Z,19.50
2019-03-30T08:07:16.886Z,17.62
2019-03-30T08:09:50.470Z,16.82
2019-03-30T08:12:24.879Z,18.42
2019-03-30T08:14:58.296Z,21.60
2019-03-30T08:17:31.706Z,17.37
2019-03-30T08:20:06.350Z,15.30
2019-03-30T08:22:39.867Z,17.42
2019-03-30T08:25:13.566Z,23.15
2019-03-30T08:27:47.024Z,17.77
2019-03-30T08:30:20.865Z,14.18
2019-03-30T08:32:54.400Z,20.48
2019-03-30T08:35:28.021Z,15.35
2019-03-30T08:38:01.531Z,16.02
2019-03-30T08:40:35.202Z,17.62
2019-03-30T08:43:08.631Z,18.57
2019-03-30T08:45:42.415Z,21.00
2019-03-30T08:48:15.931Z,17.32
2019-03-30T08:50:49.580Z,15.40
2019-03-30T08:53:23.090Z,15.23
2019-03-30T08:55:57.236Z,17.48
2019-03-30T08:58:30.826Z,15.35
2019-03-30T09:01:04.512Z,17.62
2019-03-30T09:03:38.283Z,19.82
2019-03-30T09:06:11.788Z,16.48
2019-03-30T09:08:45.431Z,15.68
2019-03-30T09:11:18.871Z,23.92
2019-03-30T09:13:52.552Z,17.17
2019-03-30T09:16:26.081Z,19.70
2019-03-30T09:18:59.704Z,17.98
2019-03-30T09:21:33.405Z,21.37
2019-03-30T09:24:09.810Z,17.77
2019-03-30T09:26:42.286Z,15.32
2019-03-30T09:29:15.663Z,16.77
2019-03-30T09:31:49.378Z,14.93
2019-03-30T09:34:23.448Z,17.55
2019-03-30T09:36:56.967Z,18.48
2019-03-30T09:39:30.559Z,18.32
2019-03-30T09:42:03.987Z,17.17
2019-03-30T09:44:37.368Z,13.78
2019-03-30T09:47:10.910Z,18.25
2019-03-30T09:49:44.383Z,17.90
2019-03-30T09:52:18.229Z,14.23
2019-03-30T09:54:51.898Z,14.65
2019-03-30T09:57:25.468Z,15.13
2019-03-30T09:59:58.981Z,20.32
2019-03-30T10:02:32.578Z,16.52
2019-03-30T10:05:06.275Z,15.65
2019-03-30T10:07:39.718Z,19.20
2019-03-30T10:10:13.933Z,16.97
2019-03-30T10:12:47.568Z,16.97
2019-03-30T10:15:21.156Z,22.75
2019-03-30T10:17:54.757Z,18.25
2019-03-30T10:20:28.288Z,16.48
2019-03-30T10:23:01.919Z,19.15
2019-03-30T10:25:35.622Z,17.32
2019-03-30T10:28:09.182Z,21.02
2019-03-30T10:30:42.696Z,19.75
2019-03-30T10:33:16.249Z,13.50
2019-03-30T10:35:50.404Z,11.60
2019-03-30T10:38:25.021Z,11.75
2019-03-30T10:40:58.397Z,14.40
2019-03-30T10:43:31.893Z,11.97
2019-03-30T10:46:05.487Z,13.25
2019-03-30T10:48:38.892Z,12.88
2019-03-30T10:51:12.718Z,19.27
2019-03-30T10:53:46.253Z,13.50
2019-03-30T10:56:19.769Z,12.58
2019-03-30T10:58:53.257Z,12.20
2019-03-30T11:01:27.855Z,12.43
2019-03-30T11:04:01.604Z,12.33
2019-03-30T11:06:35.278Z,12.28
2019-03-30T11:09:08.857Z,13.13
2019-03-30T11:11:42.504Z,12.13
2019-03-30T11:14:16.009Z,14.78
2019-03-30T11:16:49.833Z,12.35
2019-03-30T11:19:23.298Z,12.58
2019-03-30T11:21:56.977Z,11.55
2019-03-30T11:24:30.412Z,10.03
2019-03-30T11:27:04.182Z,10.05
2019-03-30T11:29:37.824Z,18.40
2019-03-30T11:32:11.358Z,13.85
2019-03-30T11:34:44.957Z,14.18
2019-03-30T11:37:18.712Z,11.12
2019-03-30T11:39:52.277Z,12.43
2019-03-30T11:42:25.939Z,11.65
2019-03-30T11:44:59.427Z,9.13
2019-03-30T11:47:33.052Z,12.47
2019-03-30T11:50:07.019Z,15.30
2019-03-30T11:52:40.537Z,11.93
2019-03-30T11:55:21.577Z,16.23
2019-03-30T11:57:49.808Z,16.60
2019-03-30T12:00:23.354Z,10.35
2019-03-30T12:02:56.818Z,13.58
2019-03-30T12:05:30.683Z,14.18
2019-03-30T12:08:04.218Z,14.98
2019-03-30T12:10:37.979Z,14.20
2019-03-30T12:13:11.533Z,18.65
2019-03-30T12:15:45.134Z,14.38
2019-03-30T12:18:18.792Z,15.23
2019-03-30T12:20:52.373Z,14.10
2019-03-30T12:23:25.818Z,17.40
2019-03-30T12:26:01.860Z,10.43
2019-03-30T12:28:37.020Z,12.90
2019-03-30T12:31:10.593Z,15.80
2019-03-30T12:33:44.003Z,10.60
2019-03-30T12:36:17.325Z,10.63
2019-03-30T12:38:51.049Z,12.58
2019-03-30T12:41:36.540Z,14.98
2019-03-30T12:44:09.971Z,69.00
2019-03-30T12:46:43.339Z,11.12
2019-03-30T12:49:16.760Z,11.83
2019-03-30T12:51:50.250Z,13.68
2019-03-30T12:54:23.925Z,11.68
2019-03-30T12:56:57.391Z,20.70
2019-03-30T12:59:30.796Z,11.30
2019-03-30T13:02:04.179Z,13.13
2019-03-30T13:04:37.684Z,11.38
2019-03-30T13:07:11.226Z,10.70
2019-03-30T13:09:44.912Z,9.85
2019-03-30T13:12:18.302Z,11.78
2019-03-30T13:14:52.252Z,15.38
2019-03-30T13:17:25.711Z,11.03
2019-03-30T13:19:59.311Z,15.85
2019-03-30T13:22:32.796Z,14.95
2019-03-30T13:25:06.531Z,39.15
2019-03-30T13:27:40.001Z,14.65
2019-03-30T13:30:13.847Z,11.60
2019-03-30T13:32:47.496Z,14.38
2019-03-30T13:35:22.042Z,15.32
2019-03-30T13:37:55.631Z,13.43
2019-03-30T13:40:29.276Z,10.65
2019-03-30T13:43:02.781Z,10.65
2019-03-30T13:45:36.341Z,11.18
2019-03-30T13:48:09.730Z,10.95
2019-03-30T13:50:43.349Z,10.43
2019-03-30T13:53:16.916Z,12.30
2019-03-30T13:55:50.405Z,9.78
2019-03-30T13:58:23.773Z,10.20
2019-03-30T14:00:57.508Z,12.58
2019-03-30T14:03:31.351Z,10.40
2019-03-30T14:06:04.876Z,15.18
2019-03-30T14:08:38.415Z,11.88
2019-03-30T14:11:11.981Z,12.85
2019-03-30T14:13:45.722Z,11.93
2019-03-30T14:16:19.136Z,13.03
2019-03-30T14:18:52.611Z,14.20
2019-03-30T14:21:26.146Z,10.63
2019-03-30T14:23:59.544Z,11.85
2019-03-30T14:26:33.292Z,14.47
2019-03-30T14:29:06.906Z,9.75
2019-03-30T14:31:40.528Z,12.05
2019-03-30T14:34:14.095Z,14.65
2019-03-30T14:36:48.023Z,9.30
2019-03-30T14:39:21.677Z,10.85
2019-03-30T14:41:55.171Z,7.72
2019-03-30T14:44:29.155Z,9.88
2019-03-30T14:47:03.454Z,15.88
2019-03-30T14:49:37.017Z,9.15
2019-03-30T14:52:10.748Z,10.93
2019-03-30T14:54:52.753Z,12.30
2019-03-30T14:57:19.954Z,11.57
2019-03-30T14:59:53.627Z,9.73
2019-03-30T15:02:27.194Z,18.42
2019-03-30T15:05:01.186Z,16.15
2019-03-30T15:07:35.093Z,16.87
2019-03-30T15:10:09.524Z,13.85
2019-03-30T15:12:43.143Z,13.85
2019-03-30T15:15:16.603Z,13.70
2019-03-30T15:17:50.455Z,13.45
2019-03-30T15:20:23.887Z,14.95
2019-03-30T15:22:57.602Z,13.45
2019-03-30T15:25:31.056Z,12.75
2019-03-30T15:28:04.842Z,10.93
2019-03-30T15:30:39.403Z,12.28
2019-03-30T15:33:12.902Z,16.40
2019-03-30T15:35:46.613Z,12.50
2019-03-30T15:38:22.749Z,15.45
2019-03-30T15:40:55.898Z,20.68
2019-03-30T15:43:38.024Z,15.50
2019-03-30T15:46:05.220Z,16.62
2019-03-30T15:48:38.672Z,21.10
2019-03-30T15:51:12.199Z,17.57
2019-03-30T15:53:45.788Z,17.55
2019-03-30T15:56:19.277Z,18.07
2019-03-30T15:58:52.762Z,16.67
2019-03-30T16:01:26.283Z,24.98
2019-03-30T16:04:02.373Z,25.43
2019-03-30T16:06:35.142Z,17.17
2019-03-30T16:09:08.648Z,17.95
2019-03-30T16:11:42.327Z,19.27
2019-03-30T16:14:15.912Z,17.17
2019-03-30T16:16:49.391Z,16.17
2019-03-30T16:19:23.074Z,17.23
2019-03-30T16:21:56.908Z,17.02
2019-03-30T16:24:30.548Z,21.40
2019-03-30T16:27:04.093Z,16.15
2019-03-30T16:29:37.683Z,15.28
2019-03-30T16:32:11.278Z,17.25
2019-03-30T16:34:44.768Z,18.45
2019-03-30T16:37:18.420Z,17.52
2019-03-30T16:39:51.783Z,19.37
2019-03-30T16:42:25.505Z,17.90
2019-03-30T16:44:59.099Z,17.85
2019-03-30T16:47:32.544Z,21.37
2019-03-30T16:50:07.113Z,17.20
2019-03-30T16:52:41.105Z,18.27
2019-03-30T16:55:15.198Z,16.20
2019-03-30T16:57:48.732Z,21.10
2019-03-30T17:00:22.367Z,19.05
2019-03-30T17:02:56.002Z,19.27
2019-03-30T17:05:29.622Z,20.82
2019-03-30T17:08:03.058Z,21.57
2019-03-30T17:10:40.128Z,17.98
2019-03-30T17:13:12.342Z,27.58
2019-03-30T17:15:45.997Z,21.45
2019-03-30T17:18:19.555Z,20.08
2019-03-30T17:20:53.569Z,17.62
2019-03-30T17:23:27.154Z,19.80
2019-03-30T17:26:00.594Z,22.70
2019-03-30T17:28:34.103Z,18.17
2019-03-30T17:31:07.665Z,17.75
2019-03-30T17:33:41.124Z,17.98
2019-03-30T17:36:14.875Z,20.17
2019-03-30T17:38:48.388Z,22.60
2019-03-30T17:41:22.278Z,27.48
2019-03-30T17:43:55.843Z,26.07
2019-03-30T17:46:29.734Z,19.85
2019-03-30T17:49:03.416Z,21.60
2019-03-30T17:51:36.961Z,21.30
2019-03-30T17:54:10.617Z,26.70
2019-03-30T17:56:43.983Z,38.13
2019-03-30T17:59:17.603Z,27.55
2019-03-30T18:01:51.013Z,37.78
2019-03-30T18:04:24.530Z,25.55
2019-03-30T18:06:59.239Z,22.27
2019-03-30T18:09:32.639Z,20.08
2019-03-30T18:12:06.371Z,18.40
2019-03-30T18:14:39.927Z,21.48
2019-03-30T18:17:13.630Z,17.27
2019-03-30T18:19:47.070Z,20.30
2019-03-30T18:22:20.916Z,20.57
2019-03-30T18:24:54.549Z,17.75
2019-03-30T18:27:28.053Z,20.23
2019-03-30T18:30:01.754Z,21.80
2019-03-30T18:32:35.149Z,21.62
2019-03-30T18:35:08.779Z,22.77
2019-03-30T18:37:42.721Z,21.15
2019-03-30T18:40:27.614Z,22.80
2019-03-30T18:43:02.291Z,30.72
2019-03-30T18:45:39.546Z,28.90
2019-03-30T18:48:14.471Z,42.70
2019-03-30T18:50:48.264Z,108.22
2019-03-30T18:53:21.934Z,36.13
2019-03-30T18:55:55.715Z,29.30
2019-03-30T18:58:41.134Z,30.55
2019-03-30T19:01:04.517Z,32.78
2019-03-30T19:03:38.144Z,34.18
2019-03-30T19:06:11.561Z,33.53
2019-03-30T19:08:45.117Z,33.58
2019-03-30T19:11:18.835Z,32.10
2019-03-30T19:13:52.256Z,25.40
2019-03-30T19:16:25.910Z,29.77
2019-03-30T19:18:59.592Z,31.82
2019-03-30T19:21:33.194Z,25.23
2019-03-30T19:24:06.739Z,28.95
2019-03-30T19:26:40.531Z,23.22
2019-03-30T19:29:14.011Z,20.50
2019-03-30T19:31:47.593Z,23.98
2019-03-30T19:34:21.124Z,24.67
2019-03-30T19:36:54.828Z,25.55
2019-03-30T19:39:28.576Z,24.23
2019-03-30T19:42:02.102Z,26.70
2019-03-30T19:44:35.624Z,37.60
2019-03-30T19:47:09.172Z,23.02
2019-03-30T19:49:42.695Z,17.50
2019-03-30T19:52:16.456Z,21.93
2019-03-30T19:54:50.175Z,23.77
2019-03-30T19:57:27.365Z,21.70
2019-03-30T19:59:59.325Z,19.15
2019-03-30T20:02:32.862Z,12.50
2019-03-30T20:05:06.931Z,14.13
2019-03-30T20:07:40.785Z,14.70
2019-03-30T20:10:15.135Z,14.47
2019-03-30T20:12:48.989Z,17.30
2019-03-30T20:15:22.413Z,18.90
2019-03-30T20:17:55.926Z,22.20
2019-03-30T20:20:29.536Z,24.05
2019-03-30T20:23:03.271Z,25.48
2019-03-30T20:25:36.790Z,27.55
2019-03-30T20:28:10.495Z,23.30
2019-03-30T20:30:43.995Z,19.30
2019-03-30T20:33:17.773Z,23.02
2019-03-30T20:35:51.258Z,23.07
2019-03-30T20:38:24.920Z,27.63
2019-03-30T20:40:58.352Z,24.70
2019-03-30T20:43:33.204Z,26.02
2019-03-30T20:46:07.763Z,33.67
2019-03-30T20:48:41.238Z,27.32
2019-03-30T20:51:14.785Z,27.60
2019-03-30T20:53:48.419Z,32.25
2019-03-30T20:56:22.057Z,26.50
2019-03-30T20:58:55.633Z,25.07
2019-03-30T21:01:30.106Z,30.00
2019-03-30T21:04:04.667Z,35.40
2019-03-30T21:06:38.342Z,27.13
2019-03-30T21:09:12.175Z,28.67
2019-03-30T21:11:45.653Z,34.13
2019-03-30T21:14:19.272Z,31.90
2019-03-30T21:16:52.797Z,32.57
2019-03-30T21:19:26.477Z,28.10
2019-03-30T21:22:00.080Z,28.47
2019-03-30T21:24:33.532Z,30.67
2019-03-30T21:27:07.197Z,29.57
2019-03-30T21:29:54.019Z,32.00
2019-03-30T21:32:16.392Z,29.47
2019-03-30T21:34:50.112Z,28.47
2019-03-30T21:37:23.623Z,27.70
2019-03-30T21:39:57.286Z,28.67
2019-03-30T21:42:30.687Z,33.80
2019-03-30T21:45:05.006Z,31.63
2019-03-30T21:47:38.571Z,30.83
2019-03-30T21:50:12.299Z,28.50
2019-03-30T21:52:45.810Z,31.23
2019-03-30T21:55:19.443Z,29.60
2019-03-30T21:57:53.054Z,36.57
2019-03-30T22:00:39.432Z,31.93
2019-03-30T22:03:13.062Z,29.17
2019-03-30T22:05:46.703Z,28.30
2019-03-30T22:08:20.118Z,23.60
2019-03-30T22:10:53.723Z,26.70
2019-03-30T22:13:27.409Z,22.70
2019-03-30T22:16:00.921Z,24.93
2019-03-30T22:18:34.411Z,21.97
2019-03-30T22:21:08.041Z,19.50
2019-03-30T22:23:41.750Z,22.47
2019-03-30T22:26:15.307Z,22.07
2019-03-30T22:28:48.923Z,19.77
2019-03-30T22:31:22.373Z,22.67
2019-03-30T22:33:55.856Z,21.93
2019-03-30T22:36:29.401Z,23.27
2019-03-30T22:39:04.678Z,21.60
2019-03-30T22:41:38.867Z,24.73
2019-03-30T22:44:12.697Z,24.57
2019-03-30T22:46:46.361Z,22.47
2019-03-30T22:49:19.719Z,29.47
2019-03-30T22:51:53.277Z,28.07
2019-03-30T22:54:26.763Z,29.70
2019-03-30T22:57:00.204Z,27.10
2019-03-30T22:59:33.756Z,30.73
2019-03-30T23:02:07.586Z,33.63
2019-03-30T23:04:41.092Z,33.40
2019-03-30T23:07:14.767Z,30.30
2019-03-30T23:09:48.219Z,30.00
2019-03-30T23:12:21.801Z,30.63
2019-03-30T23:14:57.077Z,27.77
2019-03-30T23:17:30.659Z,40.70
2019-03-30T23:20:04.478Z,30.03
2019-03-30T23:22:38.185Z,25.53
2019-03-30T23:25:11.642Z,37.17
2019-03-30T23:27:45.458Z,37.20
2019-03-30T23:30:20.950Z,32.47
2019-03-30T23:32:54.744Z,34.87
2019-03-30T23:35:28.146Z,28.93
2019-03-30T23:38:01.802Z,29.93
2019-03-30T23:40:35.193Z,31.13
2019-03-30T23:43:08.712Z,27.80
2019-03-30T23:45:42.118Z,32.53
2019-03-30T23:48:15.493Z,33.93
2019-03-30T23:50:49.279Z,33.63
2019-03-30T23:53:22.885Z,29.93
2019-03-30T23:55:56.578Z,25.37
2019-03-30T23:58:30.088Z,26.37
